sensor_id;sensor_type;location;lat;lon;timestamp;P1;durP1;ratioP1;P2;durP2;ratioP2
16189;SDS011;41754;51.498;7.540;2022-10-20T00:01:14;13.80;;;8.63;;
16189;SDS011;41754;51.498;7.540;2022-10-20T00:03:43;14.60;;;8.70;;
16189;SDS011;41754;51.498;7.540;2022-10-20T00:06:13;9.03;;;7.83;;
16189;SDS011;41754;51.498;7.540;2022-10-20T00:08:42;9.50;;;8.50;;
16189;SDS011;41754;51.498;7.540;2022-10-20T00:11:12;16.70;;;8.43;;
16189;SDS011;41754;51.498;7.540;2022-10-20T00:13:42;9.63;;;8.40;;
16189;SDS011;41754;51.498;7.540;2022-10-20T00:16:10;10.57;;;8.37;;
16189;SDS011;41754;51.498;7.540;2022-10-20T00:18:38;12.93;;;8.40;;
16189;SDS011;41754;51.498;7.540;2022-10-20T00:21:07;9.63;;;8.60;;
16189;SDS011;41754;51.498;7.540;2022-10-20T00:23:36;9.57;;;8.43;;
16189;SDS011;41754;51.498;7.540;2022-10-20T00:26:05;13.00;;;8.73;;
16189;SDS011;41754;51.498;7.540;2022-10-20T00:28:34;15.37;;;8.93;;
16189;SDS011;41754;51.498;7.540;2022-10-20T00:31:02;12.83;;;8.70;;
16189;SDS011;41754;51.498;7.540;2022-10-20T00:33:30;11.70;;;8.57;;
16189;SDS011;41754;51.498;7.540;2022-10-20T00:35:58;10.90;;;8.67;;
16189;SDS011;41754;51.498;7.540;2022-10-20T00:38:26;12.70;;;8.73;;
16189;SDS011;41754;51.498;7.540;2022-10-20T00:40:56;9.90;;;8.87;;
16189;SDS011;41754;51.498;7.540;2022-10-20T00:43:28;14.57;;;8.93;;
16189;SDS011;41754;51.498;7.540;2022-10-20T00:46:07;12.50;;;8.77;;
16189;SDS011;41754;51.498;7.540;2022-10-20T00:48:35;14.43;;;8.83;;
16189;SDS011;41754;51.498;7.540;2022-10-20T00:51:03;10.73;;;9.63;;
16189;SDS011;41754;51.498;7.540;2022-10-20T00:53:31;11.33;;;9.83;;
16189;SDS011;41754;51.498;7.540;2022-10-20T00:56:01;10.73;;;9.63;;
16189;SDS011;41754;51.498;7.540;2022-10-20T00:58:29;12.27;;;9.17;;
16189;SDS011;41754;51.498;7.540;2022-10-20T01:00:57;15.73;;;10.53;;
16189;SDS011;41754;51.498;7.540;2022-10-20T01:03:27;14.87;;;10.03;;
16189;SDS011;41754;51.498;7.540;2022-10-20T01:05:57;15.87;;;10.30;;
16189;SDS011;41754;51.498;7.540;2022-10-20T01:08:25;12.10;;;9.80;;
16189;SDS011;41754;51.498;7.540;2022-10-20T01:10:55;12.60;;;9.60;;
16189;SDS011;41754;51.498;7.540;2022-10-20T01:13:32;14.20;;;9.63;;
16189;SDS011;41754;51.498;7.540;2022-10-20T01:16:08;15.13;;;10.03;;
16189;SDS011;41754;51.498;7.540;2022-10-20T01:18:40;11.60;;;9.43;;
16189;SDS011;41754;51.498;7.540;2022-10-20T01:21:18;13.17;;;9.57;;
16189;SDS011;41754;51.498;7.540;2022-10-20T01:23:59;13.07;;;10.03;;
16189;SDS011;41754;51.498;7.540;2022-10-20T01:29:49;11.37;;;9.20;;
16189;SDS011;41754;51.498;7.540;2022-10-20T01:32:21;12.67;;;9.67;;
16189;SDS011;41754;51.498;7.540;2022-10-20T01:34:52;13.93;;;10.33;;
16189;SDS011;41754;51.498;7.540;2022-10-20T01:37:25;16.33;;;9.67;;
16189;SDS011;41754;51.498;7.540;2022-10-20T01:40:15;15.10;;;9.90;;
16189;SDS011;41754;51.498;7.540;2022-10-20T01:42:47;13.30;;;8.70;;
16189;SDS011;41754;51.498;7.540;2022-10-20T01:45:19;9.93;;;8.90;;
16189;SDS011;41754;51.498;7.540;2022-10-20T01:47:48;12.23;;;9.57;;
16189;SDS011;41754;51.498;7.540;2022-10-20T01:50:17;14.00;;;9.53;;
16189;SDS011;41754;51.498;7.540;2022-10-20T01:52:45;12.30;;;9.23;;
16189;SDS011;41754;51.498;7.540;2022-10-20T01:55:14;11.03;;;9.40;;
16189;SDS011;41754;51.498;7.540;2022-10-20T01:57:45;11.63;;;8.70;;
16189;SDS011;41754;51.498;7.540;2022-10-20T02:00:21;12.87;;;9.00;;
16189;SDS011;41754;51.498;7.540;2022-10-20T02:03:02;13.97;;;9.17;;
16189;SDS011;41754;51.498;7.540;2022-10-20T02:05:47;10.20;;;8.90;;
16189;SDS011;41754;51.498;7.540;2022-10-20T02:08:21;11.80;;;9.30;;
16189;SDS011;41754;51.498;7.540;2022-10-20T02:10:57;9.97;;;8.60;;
16189;SDS011;41754;51.498;7.540;2022-10-20T02:13:27;11.57;;;9.53;;
16189;SDS011;41754;51.498;7.540;2022-10-20T02:15:57;9.60;;;8.67;;
16189;SDS011;41754;51.498;7.540;2022-10-20T02:18:28;11.80;;;9.30;;
16189;SDS011;41754;51.498;7.540;2022-10-20T02:20:57;12.83;;;9.50;;
16189;SDS011;41754;51.498;7.540;2022-10-20T02:23:27;12.17;;;8.93;;
16189;SDS011;41754;51.498;7.540;2022-10-20T02:26:02;10.43;;;8.57;;
16189;SDS011;41754;51.498;7.540;2022-10-20T02:28:32;9.97;;;8.63;;
16189;SDS011;41754;51.498;7.540;2022-10-20T02:31:02;11.43;;;8.50;;
16189;SDS011;41754;51.498;7.540;2022-10-20T02:33:31;9.97;;;8.17;;
16189;SDS011;41754;51.498;7.540;2022-10-20T02:36:02;11.97;;;8.80;;
16189;SDS011;41754;51.498;7.540;2022-10-20T02:38:31;10.20;;;7.93;;
16189;SDS011;41754;51.498;7.540;2022-10-20T02:40:59;11.33;;;8.70;;
16189;SDS011;41754;51.498;7.540;2022-10-20T02:43:26;9.97;;;8.67;;
16189;SDS011;41754;51.498;7.540;2022-10-20T02:45:54;11.60;;;8.30;;
16189;SDS011;41754;51.498;7.540;2022-10-20T02:48:23;11.47;;;9.10;;
16189;SDS011;41754;51.498;7.540;2022-10-20T02:50:51;11.47;;;8.67;;
16189;SDS011;41754;51.498;7.540;2022-10-20T02:53:19;11.73;;;8.87;;
16189;SDS011;41754;51.498;7.540;2022-10-20T02:55:46;12.00;;;9.77;;
16189;SDS011;41754;51.498;7.540;2022-10-20T02:58:14;13.13;;;9.57;;
16189;SDS011;41754;51.498;7.540;2022-10-20T03:00:42;11.10;;;9.33;;
16189;SDS011;41754;51.498;7.540;2022-10-20T03:03:10;13.43;;;9.77;;
16189;SDS011;41754;51.498;7.540;2022-10-20T03:05:39;12.97;;;9.90;;
16189;SDS011;41754;51.498;7.540;2022-10-20T03:08:09;11.60;;;9.33;;
16189;SDS011;41754;51.498;7.540;2022-10-20T03:10:37;12.60;;;10.20;;
16189;SDS011;41754;51.498;7.540;2022-10-20T03:13:07;12.10;;;10.13;;
16189;SDS011;41754;51.498;7.540;2022-10-20T03:15:35;13.47;;;9.87;;
16189;SDS011;41754;51.498;7.540;2022-10-20T03:18:03;10.53;;;9.37;;
16189;SDS011;41754;51.498;7.540;2022-10-20T03:20:31;10.23;;;8.90;;
16189;SDS011;41754;51.498;7.540;2022-10-20T03:23:04;12.57;;;9.03;;
16189;SDS011;41754;51.498;7.540;2022-10-20T03:25:33;9.63;;;8.67;;
16189;SDS011;41754;51.498;7.540;2022-10-20T03:28:01;11.87;;;9.73;;
16189;SDS011;41754;51.498;7.540;2022-10-20T03:30:29;10.13;;;8.90;;
16189;SDS011;41754;51.498;7.540;2022-10-20T03:32:56;11.07;;;8.87;;
16189;SDS011;41754;51.498;7.540;2022-10-20T03:35:24;11.17;;;9.40;;
16189;SDS011;41754;51.498;7.540;2022-10-20T03:37:52;8.73;;;7.87;;
16189;SDS011;41754;51.498;7.540;2022-10-20T03:40:21;12.10;;;8.77;;
16189;SDS011;41754;51.498;7.540;2022-10-20T03:42:49;13.17;;;9.20;;
16189;SDS011;41754;51.498;7.540;2022-10-20T03:45:17;13.73;;;8.60;;
16189;SDS011;41754;51.498;7.540;2022-10-20T03:47:45;11.70;;;8.83;;
16189;SDS011;41754;51.498;7.540;2022-10-20T03:50:12;12.13;;;9.40;;
16189;SDS011;41754;51.498;7.540;2022-10-20T03:52:40;13.20;;;8.30;;
16189;SDS011;41754;51.498;7.540;2022-10-20T03:55:08;12.87;;;9.30;;
16189;SDS011;41754;51.498;7.540;2022-10-20T03:57:37;9.37;;;8.23;;
16189;SDS011;41754;51.498;7.540;2022-10-20T04:00:05;11.90;;;8.60;;
16189;SDS011;41754;51.498;7.540;2022-10-20T04:02:40;10.97;;;8.40;;
16189;SDS011;41754;51.498;7.540;2022-10-20T04:05:09;11.20;;;8.67;;
16189;SDS011;41754;51.498;7.540;2022-10-20T04:07:37;9.20;;;8.00;;
16189;SDS011;41754;51.498;7.540;2022-10-20T04:10:05;9.40;;;8.37;;
16189;SDS011;41754;51.498;7.540;2022-10-20T04:12:34;11.90;;;8.83;;
16189;SDS011;41754;51.498;7.540;2022-10-20T04:15:04;10.17;;;8.97;;
16189;SDS011;41754;51.498;7.540;2022-10-20T04:17:33;13.47;;;8.07;;
16189;SDS011;41754;51.498;7.540;2022-10-20T04:20:02;9.37;;;8.37;;
16189;SDS011;41754;51.498;7.540;2022-10-20T04:22:30;10.50;;;8.30;;
16189;SDS011;41754;51.498;7.540;2022-10-20T04:24:58;10.87;;;8.03;;
16189;SDS011;41754;51.498;7.540;2022-10-20T04:27:26;9.80;;;8.60;;
16189;SDS011;41754;51.498;7.540;2022-10-20T04:29:54;12.83;;;8.53;;
16189;SDS011;41754;51.498;7.540;2022-10-20T04:32:23;9.77;;;8.07;;
16189;SDS011;41754;51.498;7.540;2022-10-20T04:34:51;10.73;;;8.73;;
16189;SDS011;41754;51.498;7.540;2022-10-20T04:37:19;9.77;;;8.70;;
16189;SDS011;41754;51.498;7.540;2022-10-20T04:39:46;11.47;;;8.83;;
16189;SDS011;41754;51.498;7.540;2022-10-20T04:42:16;9.70;;;8.60;;
16189;SDS011;41754;51.498;7.540;2022-10-20T04:44:44;10.40;;;9.27;;
16189;SDS011;41754;51.498;7.540;2022-10-20T04:47:12;10.67;;;8.20;;
16189;SDS011;41754;51.498;7.540;2022-10-20T04:49:41;10.13;;;8.23;;
16189;SDS011;41754;51.498;7.540;2022-10-20T04:52:09;11.43;;;8.90;;
16189;SDS011;41754;51.498;7.540;2022-10-20T04:54:37;12.37;;;8.30;;
16189;SDS011;41754;51.498;7.540;2022-10-20T04:57:05;11.70;;;8.67;;
16189;SDS011;41754;51.498;7.540;2022-10-20T04:59:32;10.90;;;8.77;;
16189;SDS011;41754;51.498;7.540;2022-10-20T05:02:00;11.17;;;8.70;;
16189;SDS011;41754;51.498;7.540;2022-10-20T05:04:28;10.23;;;8.80;;
16189;SDS011;41754;51.498;7.540;2022-10-20T05:06:57;11.63;;;8.83;;
16189;SDS011;41754;51.498;7.540;2022-10-20T05:09:25;12.30;;;8.27;;
16189;SDS011;41754;51.498;7.540;2022-10-20T05:11:53;10.77;;;9.50;;
16189;SDS011;41754;51.498;7.540;2022-10-20T05:14:21;13.50;;;8.77;;
16189;SDS011;41754;51.498;7.540;2022-10-20T05:16:49;9.80;;;8.80;;
16189;SDS011;41754;51.498;7.540;2022-10-20T05:19:17;11.37;;;9.30;;
16189;SDS011;41754;51.498;7.540;2022-10-20T05:21:45;11.37;;;9.20;;
16189;SDS011;41754;51.498;7.540;2022-10-20T05:24:14;12.80;;;9.77;;
16189;SDS011;41754;51.498;7.540;2022-10-20T05:26:48;10.10;;;8.80;;
16189;SDS011;41754;51.498;7.540;2022-10-20T05:29:15;11.63;;;9.07;;
16189;SDS011;41754;51.498;7.540;2022-10-20T05:31:43;13.00;;;8.40;;
16189;SDS011;41754;51.498;7.540;2022-10-20T05:34:11;11.73;;;9.57;;
16189;SDS011;41754;51.498;7.540;2022-10-20T05:36:39;13.70;;;9.30;;
16189;SDS011;41754;51.498;7.540;2022-10-20T05:39:06;12.37;;;9.43;;
16189;SDS011;41754;51.498;7.540;2022-10-20T05:41:36;11.53;;;8.93;;
16189;SDS011;41754;51.498;7.540;2022-10-20T05:44:05;12.23;;;8.00;;
16189;SDS011;41754;51.498;7.540;2022-10-20T05:46:35;10.30;;;9.07;;
16189;SDS011;41754;51.498;7.540;2022-10-20T05:49:09;15.00;;;8.63;;
16189;SDS011;41754;51.498;7.540;2022-10-20T05:51:39;11.27;;;9.07;;
16189;SDS011;41754;51.498;7.540;2022-10-20T05:54:08;12.37;;;9.30;;
16189;SDS011;41754;51.498;7.540;2022-10-20T05:56:39;12.33;;;9.00;;
16189;SDS011;41754;51.498;7.540;2022-10-20T05:59:07;12.70;;;9.23;;
16189;SDS011;41754;51.498;7.540;2022-10-20T06:01:36;14.23;;;8.67;;
16189;SDS011;41754;51.498;7.540;2022-10-20T06:04:14;9.73;;;8.10;;
16189;SDS011;41754;51.498;7.540;2022-10-20T06:06:43;14.30;;;9.17;;
16189;SDS011;41754;51.498;7.540;2022-10-20T06:09:11;15.27;;;8.00;;
16189;SDS011;41754;51.498;7.540;2022-10-20T06:11:40;12.10;;;9.90;;
16189;SDS011;41754;51.498;7.540;2022-10-20T06:14:08;19.23;;;15.00;;
16189;SDS011;41754;51.498;7.540;2022-10-20T06:16:36;12.07;;;9.90;;
16189;SDS011;41754;51.498;7.540;2022-10-20T06:19:04;18.97;;;14.70;;
16189;SDS011;41754;51.498;7.540;2022-10-20T06:21:32;13.87;;;8.77;;
16189;SDS011;41754;51.498;7.540;2022-10-20T06:24:02;14.00;;;8.87;;
16189;SDS011;41754;51.498;7.540;2022-10-20T06:26:32;9.27;;;8.37;;
16189;SDS011;41754;51.498;7.540;2022-10-20T06:29:03;9.73;;;8.13;;
16189;SDS011;41754;51.498;7.540;2022-10-20T06:31:33;12.80;;;8.97;;
16189;SDS011;41754;51.498;7.540;2022-10-20T06:34:04;11.87;;;8.77;;
16189;SDS011;41754;51.498;7.540;2022-10-20T06:36:33;10.30;;;8.53;;
16189;SDS011;41754;51.498;7.540;2022-10-20T06:39:01;11.53;;;8.57;;
16189;SDS011;41754;51.498;7.540;2022-10-20T06:41:30;11.80;;;8.60;;
16189;SDS011;41754;51.498;7.540;2022-10-20T06:43:58;11.70;;;8.70;;
16189;SDS011;41754;51.498;7.540;2022-10-20T06:46:28;10.57;;;8.50;;
16189;SDS011;41754;51.498;7.540;2022-10-20T06:48:58;12.00;;;7.67;;
16189;SDS011;41754;51.498;7.540;2022-10-20T06:51:26;9.50;;;7.63;;
16189;SDS011;41754;51.498;7.540;2022-10-20T06:53:54;9.03;;;7.83;;
16189;SDS011;41754;51.498;7.540;2022-10-20T06:56:23;10.33;;;8.10;;
16189;SDS011;41754;51.498;7.540;2022-10-20T06:58:52;8.80;;;7.90;;
16189;SDS011;41754;51.498;7.540;2022-10-20T07:01:21;11.30;;;8.17;;
16189;SDS011;41754;51.498;7.540;2022-10-20T07:03:52;11.67;;;8.13;;
16189;SDS011;41754;51.498;7.540;2022-10-20T07:06:22;12.13;;;7.97;;
16189;SDS011;41754;51.498;7.540;2022-10-20T07:08:51;11.70;;;7.87;;
16189;SDS011;41754;51.498;7.540;2022-10-20T07:11:19;10.40;;;7.70;;
16189;SDS011;41754;51.498;7.540;2022-10-20T07:13:48;7.47;;;6.70;;
16189;SDS011;41754;51.498;7.540;2022-10-20T07:16:17;7.23;;;6.07;;
16189;SDS011;41754;51.498;7.540;2022-10-20T07:18:46;9.57;;;7.55;;
16189;SDS011;41754;51.498;7.540;2022-10-20T07:21:16;8.25;;;7.32;;
16189;SDS011;41754;51.498;7.540;2022-10-20T07:23:45;9.80;;;6.85;;
16189;SDS011;41754;51.498;7.540;2022-10-20T07:26:14;9.20;;;6.20;;
16189;SDS011;41754;51.498;7.540;2022-10-20T07:28:44;10.07;;;6.25;;
16189;SDS011;41754;51.498;7.540;2022-10-20T07:31:20;9.68;;;5.95;;
16189;SDS011;41754;51.498;7.540;2022-10-20T07:33:49;8.18;;;5.72;;
16189;SDS011;41754;51.498;7.540;2022-10-20T07:36:39;29.95;;;18.27;;
16189;SDS011;41754;51.498;7.540;2022-10-20T07:39:08;15.73;;;12.07;;
16189;SDS011;41754;51.498;7.540;2022-10-20T07:41:38;14.98;;;7.07;;
16189;SDS011;41754;51.498;7.540;2022-10-20T07:44:09;9.38;;;5.88;;
16189;SDS011;41754;51.498;7.540;2022-10-20T07:46:36;7.20;;;5.97;;
16189;SDS011;41754;51.498;7.540;2022-10-20T07:49:04;5.72;;;5.22;;
16189;SDS011;41754;51.498;7.540;2022-10-20T07:51:53;8.10;;;5.82;;
16189;SDS011;41754;51.498;7.540;2022-10-20T07:54:21;8.27;;;5.47;;
16189;SDS011;41754;51.498;7.540;2022-10-20T07:56:49;5.68;;;4.78;;
16189;SDS011;41754;51.498;7.540;2022-10-20T07:59:17;7.45;;;4.28;;
16189;SDS011;41754;51.498;7.540;2022-10-20T08:01:45;5.40;;;4.30;;
16189;SDS011;41754;51.498;7.540;2022-10-20T08:04:13;5.50;;;4.25;;
16189;SDS011;41754;51.498;7.540;2022-10-20T08:06:41;12.13;;;4.57;;
16189;SDS011;41754;51.498;7.540;2022-10-20T08:09:10;6.55;;;4.32;;
16189;SDS011;41754;51.498;7.540;2022-10-20T08:11:38;6.97;;;4.38;;
16189;SDS011;41754;51.498;7.540;2022-10-20T08:14:05;5.07;;;4.32;;
16189;SDS011;41754;51.498;7.540;2022-10-20T08:16:33;6.53;;;4.25;;
16189;SDS011;41754;51.498;7.540;2022-10-20T08:19:14;5.60;;;4.25;;
16189;SDS011;41754;51.498;7.540;2022-10-20T08:21:59;5.85;;;4.30;;
16189;SDS011;41754;51.498;7.540;2022-10-20T08:24:28;5.03;;;3.83;;
16189;SDS011;41754;51.498;7.540;2022-10-20T08:26:57;5.53;;;3.92;;
16189;SDS011;41754;51.498;7.540;2022-10-20T08:29:25;5.57;;;4.10;;
16189;SDS011;41754;51.498;7.540;2022-10-20T08:31:53;7.35;;;3.78;;
16189;SDS011;41754;51.498;7.540;2022-10-20T08:34:21;6.05;;;4.18;;
16189;SDS011;41754;51.498;7.540;2022-10-20T08:36:48;7.03;;;4.22;;
16189;SDS011;41754;51.498;7.540;2022-10-20T08:39:16;7.85;;;4.47;;
16189;SDS011;41754;51.498;7.540;2022-10-20T08:41:46;8.98;;;4.30;;
16189;SDS011;41754;51.498;7.540;2022-10-20T08:44:36;7.95;;;4.63;;
16189;SDS011;41754;51.498;7.540;2022-10-20T08:49:56;7.22;;;3.85;;
16189;SDS011;41754;51.498;7.540;2022-10-20T08:52:24;8.00;;;4.35;;
16189;SDS011;41754;51.498;7.540;2022-10-20T08:54:53;10.15;;;4.22;;
16189;SDS011;41754;51.498;7.540;2022-10-20T08:57:23;5.13;;;3.90;;
16189;SDS011;41754;51.498;7.540;2022-10-20T08:59:53;4.40;;;3.55;;
16189;SDS011;41754;51.498;7.540;2022-10-20T09:02:21;8.10;;;4.25;;
16189;SDS011;41754;51.498;7.540;2022-10-20T09:04:50;6.47;;;4.00;;
16189;SDS011;41754;51.498;7.540;2022-10-20T09:07:22;6.88;;;4.43;;
16189;SDS011;41754;51.498;7.540;2022-10-20T09:09:52;7.53;;;4.20;;
16189;SDS011;41754;51.498;7.540;2022-10-20T09:12:22;7.35;;;4.30;;
16189;SDS011;41754;51.498;7.540;2022-10-20T09:14:56;6.45;;;4.15;;
16189;SDS011;41754;51.498;7.540;2022-10-20T09:17:24;10.07;;;4.28;;
16189;SDS011;41754;51.498;7.540;2022-10-20T09:19:53;6.40;;;3.80;;
16189;SDS011;41754;51.498;7.540;2022-10-20T09:22:23;7.93;;;3.90;;
16189;SDS011;41754;51.498;7.540;2022-10-20T09:24:51;5.90;;;4.07;;
16189;SDS011;41754;51.498;7.540;2022-10-20T09:27:23;4.40;;;3.75;;
16189;SDS011;41754;51.498;7.540;2022-10-20T09:29:57;5.45;;;4.20;;
16189;SDS011;41754;51.498;7.540;2022-10-20T09:32:40;4.60;;;3.65;;
16189;SDS011;41754;51.498;7.540;2022-10-20T09:35:20;9.25;;;5.30;;
16189;SDS011;41754;51.498;7.540;2022-10-20T09:38:01;6.10;;;3.90;;
16189;SDS011;41754;51.498;7.540;2022-10-20T09:40:30;7.95;;;4.28;;
16189;SDS011;41754;51.498;7.540;2022-10-20T09:43:00;5.15;;;3.92;;
16189;SDS011;41754;51.498;7.540;2022-10-20T09:45:29;7.43;;;4.43;;
16189;SDS011;41754;51.498;7.540;2022-10-20T09:48:00;6.30;;;4.57;;
16189;SDS011;41754;51.498;7.540;2022-10-20T09:50:30;8.15;;;4.20;;
16189;SDS011;41754;51.498;7.540;2022-10-20T09:53:01;7.22;;;4.32;;
16189;SDS011;41754;51.498;7.540;2022-10-20T09:55:31;5.57;;;3.65;;
16189;SDS011;41754;51.498;7.540;2022-10-20T09:58:02;5.50;;;4.18;;
16189;SDS011;41754;51.498;7.540;2022-10-20T10:00:32;6.45;;;4.22;;
16189;SDS011;41754;51.498;7.540;2022-10-20T10:03:07;5.68;;;4.20;;
16189;SDS011;41754;51.498;7.540;2022-10-20T10:05:48;6.03;;;4.20;;
16189;SDS011;41754;51.498;7.540;2022-10-20T10:08:17;6.47;;;3.80;;
16189;SDS011;41754;51.498;7.540;2022-10-20T10:10:56;5.97;;;3.65;;
16189;SDS011;41754;51.498;7.540;2022-10-20T10:13:26;11.82;;;4.28;;
16189;SDS011;41754;51.498;7.540;2022-10-20T10:16:00;8.27;;;4.53;;
16189;SDS011;41754;51.498;7.540;2022-10-20T10:18:30;6.17;;;4.20;;
16189;SDS011;41754;51.498;7.540;2022-10-20T10:20:59;5.80;;;4.30;;
16189;SDS011;41754;51.498;7.540;2022-10-20T10:23:28;7.72;;;4.35;;
16189;SDS011;41754;51.498;7.540;2022-10-20T10:25:58;8.50;;;4.47;;
16189;SDS011;41754;51.498;7.540;2022-10-20T10:28:31;6.72;;;4.60;;
16189;SDS011;41754;51.498;7.540;2022-10-20T10:31:07;7.30;;;4.60;;
16189;SDS011;41754;51.498;7.540;2022-10-20T10:33:52;7.75;;;4.57;;
16189;SDS011;41754;51.498;7.540;2022-10-20T10:36:27;7.18;;;4.30;;
16189;SDS011;41754;51.498;7.540;2022-10-20T10:38:59;7.15;;;4.40;;
16189;SDS011;41754;51.498;7.540;2022-10-20T10:41:34;6.70;;;4.70;;
16189;SDS011;41754;51.498;7.540;2022-10-20T10:44:11;8.10;;;4.65;;
16189;SDS011;41754;51.498;7.540;2022-10-20T10:46:52;6.27;;;4.20;;
16189;SDS011;41754;51.498;7.540;2022-10-20T10:49:24;8.38;;;5.00;;
16189;SDS011;41754;51.498;7.540;2022-10-20T10:52:04;6.40;;;4.80;;
16189;SDS011;41754;51.498;7.540;2022-10-20T10:54:39;7.68;;;4.95;;
16189;SDS011;41754;51.498;7.540;2022-10-20T10:57:12;8.23;;;4.87;;
16189;SDS011;41754;51.498;7.540;2022-10-20T10:59:43;9.10;;;4.82;;
16189;SDS011;41754;51.498;7.540;2022-10-20T11:02:37;8.82;;;4.93;;
16189;SDS011;41754;51.498;7.540;2022-10-20T11:05:27;6.85;;;5.32;;
16189;SDS011;41754;51.498;7.540;2022-10-20T11:08:16;7.10;;;4.97;;
16189;SDS011;41754;51.498;7.540;2022-10-20T11:10:52;8.55;;;5.45;;
16189;SDS011;41754;51.498;7.540;2022-10-20T11:13:28;6.70;;;5.38;;
16189;SDS011;41754;51.498;7.540;2022-10-20T11:16:04;7.18;;;5.40;;
16189;SDS011;41754;51.498;7.540;2022-10-20T11:18:42;10.73;;;5.15;;
16189;SDS011;41754;51.498;7.540;2022-10-20T11:21:20;7.13;;;4.78;;
16189;SDS011;41754;51.498;7.540;2022-10-20T11:23:56;7.53;;;5.65;;
16189;SDS011;41754;51.498;7.540;2022-10-20T11:26:31;9.15;;;6.18;;
16189;SDS011;41754;51.498;7.540;2022-10-20T11:29:01;8.63;;;6.60;;
16189;SDS011;41754;51.498;7.540;2022-10-20T11:31:32;10.52;;;6.65;;
16189;SDS011;41754;51.498;7.540;2022-10-20T11:34:03;8.73;;;6.35;;
16189;SDS011;41754;51.498;7.540;2022-10-20T11:36:34;6.68;;;5.95;;
16189;SDS011;41754;51.498;7.540;2022-10-20T11:39:07;6.87;;;6.27;;
16189;SDS011;41754;51.498;7.540;2022-10-20T11:41:39;10.07;;;6.53;;
16189;SDS011;41754;51.498;7.540;2022-10-20T11:44:11;12.40;;;6.57;;
16189;SDS011;41754;51.498;7.540;2022-10-20T11:46:43;9.13;;;6.57;;
16189;SDS011;41754;51.498;7.540;2022-10-20T11:49:13;7.90;;;6.10;;
16189;SDS011;41754;51.498;7.540;2022-10-20T11:51:56;7.78;;;6.70;;
16189;SDS011;41754;51.498;7.540;2022-10-20T11:54:37;12.00;;;6.50;;
16189;SDS011;41754;51.498;7.540;2022-10-20T11:57:16;10.48;;;7.00;;
16189;SDS011;41754;51.498;7.540;2022-10-20T11:59:56;10.35;;;6.82;;
16189;SDS011;41754;51.498;7.540;2022-10-20T12:08:42;7.85;;;6.70;;
16189;SDS011;41754;51.498;7.540;2022-10-20T12:11:16;10.80;;;7.30;;
16189;SDS011;41754;51.498;7.540;2022-10-20T12:13:47;9.73;;;7.00;;
16189;SDS011;41754;51.498;7.540;2022-10-20T12:19:37;8.70;;;7.38;;
16189;SDS011;41754;51.498;7.540;2022-10-20T12:31:05;8.68;;;7.35;;
16189;SDS011;41754;51.498;7.540;2022-10-20T12:33:34;13.15;;;7.32;;
16189;SDS011;41754;51.498;7.540;2022-10-20T12:36:19;11.15;;;7.40;;
16189;SDS011;41754;51.498;7.540;2022-10-20T12:39:05;8.13;;;6.97;;
16189;SDS011;41754;51.498;7.540;2022-10-20T12:41:37;9.82;;;7.03;;
16189;SDS011;41754;51.498;7.540;2022-10-20T12:44:12;9.85;;;7.30;;
16189;SDS011;41754;51.498;7.540;2022-10-20T12:46:42;9.93;;;7.40;;
16189;SDS011;41754;51.498;7.540;2022-10-20T12:49:20;9.52;;;7.60;;
16189;SDS011;41754;51.498;7.540;2022-10-20T12:51:50;10.93;;;7.38;;
16189;SDS011;41754;51.498;7.540;2022-10-20T12:54:21;10.52;;;7.43;;
16189;SDS011;41754;51.498;7.540;2022-10-20T12:56:53;9.23;;;7.25;;
16189;SDS011;41754;51.498;7.540;2022-10-20T13:14:12;11.95;;;7.97;;
16189;SDS011;41754;51.498;7.540;2022-10-20T13:16:56;11.43;;;8.75;;
16189;SDS011;41754;51.498;7.540;2022-10-20T13:19:30;11.60;;;8.52;;
16189;SDS011;41754;51.498;7.540;2022-10-20T13:25:12;10.70;;;8.35;;
16189;SDS011;41754;51.498;7.540;2022-10-20T13:27:47;13.93;;;8.63;;
16189;SDS011;41754;51.498;7.540;2022-10-20T13:30:18;12.20;;;8.63;;
16189;SDS011;41754;51.498;7.540;2022-10-20T13:32:49;12.45;;;9.23;;
16189;SDS011;41754;51.498;7.540;2022-10-20T13:35:41;11.93;;;9.98;;
16189;SDS011;41754;51.498;7.540;2022-10-20T13:38:15;10.25;;;8.98;;
16189;SDS011;41754;51.498;7.540;2022-10-20T13:40:48;12.10;;;9.23;;
16189;SDS011;41754;51.498;7.540;2022-10-20T13:43:26;12.55;;;9.68;;
16189;SDS011;41754;51.498;7.540;2022-10-20T13:49:00;16.17;;;10.55;;
16189;SDS011;41754;51.498;7.540;2022-10-20T13:51:37;13.75;;;9.30;;
16189;SDS011;41754;51.498;7.540;2022-10-20T13:54:07;13.18;;;9.70;;
16189;SDS011;41754;51.498;7.540;2022-10-20T13:56:45;17.85;;;10.15;;
16189;SDS011;41754;51.498;7.540;2022-10-20T13:59:22;14.07;;;10.48;;
16189;SDS011;41754;51.498;7.540;2022-10-20T14:01:52;25.45;;;11.18;;
16189;SDS011;41754;51.498;7.540;2022-10-20T14:04:22;17.00;;;11.30;;
16189;SDS011;41754;51.498;7.540;2022-10-20T14:06:51;12.23;;;10.68;;
16189;SDS011;41754;51.498;7.540;2022-10-20T14:09:20;15.35;;;9.88;;
16189;SDS011;41754;51.498;7.540;2022-10-20T14:11:50;13.68;;;10.10;;
16189;SDS011;41754;51.498;7.540;2022-10-20T14:14:20;14.48;;;10.40;;
16189;SDS011;41754;51.498;7.540;2022-10-20T14:16:51;13.73;;;9.70;;
16189;SDS011;41754;51.498;7.540;2022-10-20T14:19:21;14.45;;;10.90;;
16189;SDS011;41754;51.498;7.540;2022-10-20T14:21:53;17.83;;;10.15;;
16189;SDS011;41754;51.498;7.540;2022-10-20T14:24:25;16.67;;;9.38;;
16189;SDS011;41754;51.498;7.540;2022-10-20T14:26:55;12.85;;;9.05;;
16189;SDS011;41754;51.498;7.540;2022-10-20T14:29:31;15.70;;;8.95;;
16189;SDS011;41754;51.498;7.540;2022-10-20T14:32:00;14.85;;;9.60;;
16189;SDS011;41754;51.498;7.540;2022-10-20T14:34:28;11.32;;;8.57;;
16189;SDS011;41754;51.498;7.540;2022-10-20T14:36:57;11.65;;;8.55;;
16189;SDS011;41754;51.498;7.540;2022-10-20T14:39:29;10.77;;;8.18;;
16189;SDS011;41754;51.498;7.540;2022-10-20T14:42:01;9.65;;;8.05;;
16189;SDS011;41754;51.498;7.540;2022-10-20T14:44:31;13.18;;;9.60;;
16189;SDS011;41754;51.498;7.540;2022-10-20T14:46:59;12.30;;;8.98;;
16189;SDS011;41754;51.498;7.540;2022-10-20T14:49:31;11.32;;;8.43;;
16189;SDS011;41754;51.498;7.540;2022-10-20T14:52:01;14.77;;;8.90;;
16189;SDS011;41754;51.498;7.540;2022-10-20T14:54:31;9.13;;;7.93;;
16189;SDS011;41754;51.498;7.540;2022-10-20T14:59:57;9.18;;;7.97;;
16189;SDS011;41754;51.498;7.540;2022-10-20T15:02:29;10.98;;;7.68;;
16189;SDS011;41754;51.498;7.540;2022-10-20T15:07:47;10.65;;;8.00;;
16189;SDS011;41754;51.498;7.540;2022-10-20T15:10:15;14.38;;;8.82;;
16189;SDS011;41754;51.498;7.540;2022-10-20T15:12:45;12.25;;;8.70;;
16189;SDS011;41754;51.498;7.540;2022-10-20T15:15:18;10.02;;;7.80;;
16189;SDS011;41754;51.498;7.540;2022-10-20T15:17:49;13.70;;;8.68;;
16189;SDS011;41754;51.498;7.540;2022-10-20T15:20:34;11.77;;;7.80;;
16189;SDS011;41754;51.498;7.540;2022-10-20T15:23:04;10.32;;;8.30;;
16189;SDS011;41754;51.498;7.540;2022-10-20T15:25:37;12.60;;;8.57;;
16189;SDS011;41754;51.498;7.540;2022-10-20T15:28:13;11.25;;;8.00;;
16189;SDS011;41754;51.498;7.540;2022-10-20T15:31:00;15.15;;;9.90;;
16189;SDS011;41754;51.498;7.540;2022-10-20T15:33:29;16.98;;;8.98;;
16189;SDS011;41754;51.498;7.540;2022-10-20T15:35:57;12.18;;;8.20;;
16189;SDS011;41754;51.498;7.540;2022-10-20T15:38:26;13.25;;;8.55;;
16189;SDS011;41754;51.498;7.540;2022-10-20T15:40:54;11.18;;;7.82;;
16189;SDS011;41754;51.498;7.540;2022-10-20T15:43:24;11.43;;;9.40;;
16189;SDS011;41754;51.498;7.540;2022-10-20T15:45:52;14.27;;;9.10;;
16189;SDS011;41754;51.498;7.540;2022-10-20T15:48:22;14.85;;;8.20;;
16189;SDS011;41754;51.498;7.540;2022-10-20T15:50:51;13.93;;;9.50;;
16189;SDS011;41754;51.498;7.540;2022-10-20T15:53:19;11.13;;;8.52;;